Terminal Aerodrome Forecast
Issued by NWS

Home | Current Version | Previous Version | Text Only | Print | Product List | Glossary On
Versions: 1 2 3 4 5 6 7 8 9 10 11 12 13 14 15 16 17 18 19 20 21
142
FTUS43 KGRR 061127
TAFAZO
TAF
KAZO 061127Z 0612/0712 21005KT 5SM BR OVC070
     FM061500 21008KT P6SM SCT070 BKN250
     FM061900 23010KT P6SM OVC030
     FM070500 20006KT P6SM OVC050
     FM070900 20010KT P6SM OVC100=

USA.gov is the U.S. government's official web portal to all federal, state and local government web resources and services.